Time;durP1;ratioP1;P1;durP2;ratioP2;P2;SDS_P1;SDS_P2;PMS_P1;PMS_P2;Temp;Humidity;BMP_temperature;BMP_pressure;BME280_temperature;BME280_humidity;BME280_pressure;Samples;Min_cycle;Max_cycle;Signal;HPM_P1;HPM_P2
2021/06/08 00:01:59;;;;;;;20.20;17.60;;;15.10;99.90;;;;;;5086546;28;21002;-73
2021/06/08 00:04:26;;;;;;;19.73;16.00;;;15.20;99.90;;;;;;5084799;28;20924;-72
2021/06/08 00:06:53;;;;;;;17.40;15.70;;;15.20;99.90;;;;;;5075511;28;20560;-73
2021/06/08 00:09:21;;;;;;;18.73;16.83;;;15.20;99.90;;;;;;5074725;28;20454;-74
2021/06/08 00:11:47;;;;;;;18.70;16.90;;;15.20;99.90;;;;;;5076885;28;20867;-73
2021/06/08 00:14:14;;;;;;;18.80;16.70;;;15.20;99.90;;;;;;5078080;28;20446;-74
2021/06/08 00:16:41;;;;;;;17.30;15.70;;;15.20;99.90;;;;;;5060191;28;20426;-73
2021/06/08 00:19:08;;;;;;;23.83;17.43;;;15.30;99.90;;;;;;5073198;28;20489;-74
2021/06/08 00:21:36;;;;;;;18.47;15.80;;;15.30;99.90;;;;;;5082674;28;20441;-73
2021/06/08 00:24:03;;;;;;;18.70;16.70;;;15.30;99.90;;;;;;5092529;28;20434;-74
2021/06/08 00:26:32;;;;;;;19.43;17.37;;;15.40;99.90;;;;;;5074990;28;20433;-74
2021/06/08 00:28:59;;;;;;;18.77;15.90;;;15.50;99.90;;;;;;5073842;28;20550;-74
2021/06/08 00:31:26;;;;;;;18.83;17.03;;;15.50;99.90;;;;;;5090091;28;20458;-73
2021/06/08 00:33:54;;;;;;;20.20;16.20;;;15.60;99.90;;;;;;5072603;28;20871;-74
2021/06/08 00:36:21;;;;;;;18.93;16.90;;;15.60;99.90;;;;;;5086053;28;20476;-73
2021/06/08 00:38:48;;;;;;;21.07;18.70;;;15.70;99.90;;;;;;5078770;28;20541;-74
2021/06/08 00:41:16;;;;;;;24.43;18.63;;;15.70;99.90;;;;;;5073281;28;20480;-73
2021/06/08 00:43:43;;;;;;;20.00;18.00;;;15.80;99.90;;;;;;5090333;28;20472;-73
2021/06/08 00:46:10;;;;;;;20.13;18.10;;;15.80;99.90;;;;;;5083373;28;20507;-73
2021/06/08 00:48:37;;;;;;;22.40;17.80;;;15.90;99.90;;;;;;5079046;28;20454;-73
2021/06/08 00:51:04;;;;;;;21.30;19.07;;;15.90;99.90;;;;;;5076827;28;20828;-74
2021/06/08 00:53:31;;;;;;;20.50;18.30;;;15.90;99.90;;;;;;5105208;28;20849;-73
2021/06/08 00:55:58;;;;;;;20.43;16.90;;;16.00;99.90;;;;;;5072718;28;20988;-73
2021/06/08 00:58:25;;;;;;;20.90;17.27;;;16.00;99.90;;;;;;5081231;28;20452;-73
2021/06/08 01:00:53;;;;;;;18.77;16.77;;;16.00;99.90;;;;;;5074971;28;21077;-73
2021/06/08 01:03:20;;;;;;;19.80;16.80;;;15.90;99.90;;;;;;5086263;28;20440;-73
2021/06/08 01:05:47;;;;;;;18.37;16.67;;;15.90;99.90;;;;;;5079987;28;21062;-74
2021/06/08 01:08:13;;;;;;;17.50;15.63;;;15.90;99.90;;;;;;5072777;28;20461;-74
2021/06/08 01:10:40;;;;;;;20.70;18.70;;;16.00;99.90;;;;;;5092124;28;20465;-74
2021/06/08 01:13:07;;;;;;;19.40;17.50;;;16.00;99.90;;;;;;5089791;28;20433;-74
2021/06/08 01:15:34;;;;;;;19.23;17.17;;;16.00;99.90;;;;;;5083494;28;20465;-74
2021/06/08 01:18:01;;;;;;;19.13;17.17;;;16.00;99.90;;;;;;5076629;28;20501;-74
2021/06/08 01:20:29;;;;;;;19.37;16.43;;;16.00;99.90;;;;;;5080491;28;20470;-74
2021/06/08 01:22:56;;;;;;;22.97;18.50;;;16.00;99.90;;;;;;5090315;28;20430;-74
2021/06/08 01:25:23;;;;;;;24.30;19.90;;;16.00;99.90;;;;;;5063298;28;20524;-74
2021/06/08 01:27:52;;;;;;;20.63;18.20;;;16.00;99.90;;;;;;5073607;28;20497;-80
2021/06/08 01:30:24;;;;;;;18.97;16.97;;;16.10;99.90;;;;;;5073362;28;20472;-80
2021/06/08 01:32:54;;;;;;;19.10;17.10;;;16.10;99.90;;;;;;5107335;28;20433;-80
2021/06/08 01:35:21;;;;;;;19.37;17.13;;;16.10;99.90;;;;;;5079131;28;20532;-80
2021/06/08 01:37:49;;;;;;;20.23;16.80;;;16.10;99.90;;;;;;5072562;28;20967;-80
2021/06/08 01:40:18;;;;;;;17.90;16.13;;;16.10;99.90;;;;;;5086206;28;20474;-80
2021/06/08 01:42:48;;;;;;;18.47;16.60;;;16.10;99.90;;;;;;5073098;28;20431;-80
2021/06/08 01:45:16;;;;;;;18.70;16.80;;;16.10;99.90;;;;;;5077798;28;20469;-80
2021/06/08 01:47:43;;;;;;;21.33;16.30;;;16.10;99.90;;;;;;5074118;28;20441;-80
2021/06/08 01:50:11;;;;;;;21.07;16.13;;;16.10;99.90;;;;;;5074654;28;21127;-80
2021/06/08 01:52:57;;;;;;;21.17;19.10;;;16.20;99.90;;;;;;5089508;28;20533;-80
2021/06/08 01:55:31;;;;;;;21.37;18.97;;;16.10;99.90;;;;;;5071185;28;20454;-80
2021/06/08 01:58:06;;;;;;;19.97;16.97;;;16.10;99.90;;;;;;5072820;28;20446;-80
2021/06/08 02:00:48;;;;;;;19.63;16.10;;;16.10;99.90;;;;;;5085527;28;20464;-80
2021/06/08 02:03:36;;;;;;;21.03;17.53;;;16.20;99.90;;;;;;5077668;28;20435;-80
2021/06/08 02:06:33;;;;;;;20.63;18.43;;;16.10;99.90;;;;;;5073411;28;20832;-80
2021/06/08 02:09:17;;;;;;;19.77;17.37;;;16.00;99.90;;;;;;5090388;28;20902;-80
2021/06/08 02:11:51;;;;;;;21.23;18.77;;;16.00;99.90;;;;;;5088773;28;20469;-80
2021/06/08 02:14:42;;;;;;;20.10;17.93;;;16.00;99.90;;;;;;5082986;28;20441;-80
2021/06/08 02:17:39;;;;;;;17.90;16.00;;;16.00;99.90;;;;;;5041072;28;20544;-80
2021/06/08 02:20:11;;;;;;;18.70;16.10;;;16.00;99.90;;;;;;5083546;28;20465;-80
2021/06/08 02:22:43;;;;;;;22.63;18.10;;;16.00;99.90;;;;;;5090742;28;20429;-80
2021/06/08 02:25:13;;;;;;;17.60;16.00;;;16.00;99.90;;;;;;5091307;28;20481;-80
2021/06/08 02:27:41;;;;;;;19.33;16.53;;;16.00;99.90;;;;;;5075166;28;20493;-80
2021/06/08 02:30:10;;;;;;;23.30;17.23;;;16.00;99.90;;;;;;5074738;28;20476;-80
2021/06/08 02:32:39;;;;;;;18.70;16.90;;;16.00;99.90;;;;;;5085855;28;20928;-80
2021/06/08 02:35:07;;;;;;;23.53;20.17;;;16.00;99.90;;;;;;5079588;28;20986;-80
2021/06/08 02:37:35;;;;;;;20.13;18.07;;;16.00;99.90;;;;;;5073083;28;20808;-80
2021/06/08 02:40:07;;;;;;;18.90;17.07;;;16.00;99.90;;;;;;5079286;28;20527;-79
2021/06/08 02:42:35;;;;;;;20.63;18.47;;;16.00;99.90;;;;;;5086761;28;20436;-80
2021/06/08 02:45:03;;;;;;;21.20;18.90;;;16.00;99.90;;;;;;5087363;28;20466;-80
2021/06/08 02:47:32;;;;;;;22.53;19.90;;;16.00;99.90;;;;;;5070571;28;20959;-79
2021/06/08 02:50:00;;;;;;;23.10;20.80;;;16.10;99.90;;;;;;5086710;28;20522;-79
2021/06/08 02:52:28;;;;;;;22.73;19.83;;;16.10;99.90;;;;;;5090776;28;20961;-80
2021/06/08 02:54:59;;;;;;;24.87;21.10;;;16.10;99.90;;;;;;5061417;28;20480;-80
2021/06/08 02:57:27;;;;;;;28.17;21.47;;;16.10;99.90;;;;;;5091009;28;20872;-80
2021/06/08 03:00:02;;;;;;;26.40;20.20;;;16.00;99.90;;;;;;5092377;28;20500;-80
2021/06/08 03:02:32;;;;;;;24.40;21.03;;;16.10;99.90;;;;;;5077228;28;20662;-80
2021/06/08 03:05:03;;;;;;;25.73;23.17;;;16.00;99.90;;;;;;5083704;28;20500;-80
2021/06/08 03:07:37;;;;;;;27.60;23.07;;;15.90;99.90;;;;;;5087438;28;20554;-79
2021/06/08 03:10:11;;;;;;;25.33;22.20;;;15.90;99.90;;;;;;5080457;28;20489;-80
2021/06/08 03:12:43;;;;;;;27.17;22.60;;;15.80;99.90;;;;;;5085661;28;20426;-80
2021/06/08 03:15:11;;;;;;;26.43;23.73;;;15.80;99.90;;;;;;5087252;28;20463;-80
2021/06/08 03:17:41;;;;;;;27.47;24.47;;;15.70;99.90;;;;;;5081069;28;20803;-80
2021/06/08 03:20:19;;;;;;;29.00;24.03;;;15.70;99.90;;;;;;5083160;28;20462;-80
2021/06/08 03:22:49;;;;;;;28.30;24.47;;;15.70;99.90;;;;;;5100999;28;20512;-80
2021/06/08 03:25:18;;;;;;;27.03;23.47;;;15.80;99.90;;;;;;5082449;28;20509;-80
2021/06/08 03:27:47;;;;;;;25.40;22.33;;;15.80;99.90;;;;;;5085271;28;20450;-80
2021/06/08 03:30:16;;;;;;;27.77;24.07;;;15.80;99.90;;;;;;5057379;28;21057;-80
2021/06/08 03:32:44;;;;;;;26.00;23.30;;;15.70;99.90;;;;;;5092607;28;20457;-80
2021/06/08 03:35:12;;;;;;;29.07;23.90;;;15.70;99.90;;;;;;5094253;28;20484;-80
2021/06/08 03:37:42;;;;;;;28.10;22.97;;;15.70;99.90;;;;;;5078825;28;20454;-79
2021/06/08 03:40:10;;;;;;;27.50;22.40;;;15.70;99.90;;;;;;5084284;28;20533;-79
2021/06/08 03:42:39;;;;;;;26.90;23.67;;;15.70;99.90;;;;;;5078029;28;20422;-80
2021/06/08 03:45:12;;;;;;;26.23;23.40;;;15.70;99.90;;;;;;5081136;28;20469;-80
2021/06/08 03:47:40;;;;;;;28.40;25.33;;;15.70;99.90;;;;;;5086651;28;20520;-80
2021/06/08 03:50:11;;;;;;;28.67;25.27;;;15.70;99.90;;;;;;5089433;28;20536;-80
2021/06/08 03:52:39;;;;;;;28.70;25.17;;;15.60;99.90;;;;;;5095393;28;20443;-80
2021/06/08 03:55:06;;;;;;;28.53;25.47;;;15.60;99.90;;;;;;5091303;28;20472;-80
2021/06/08 03:57:39;;;;;;;29.13;24.77;;;15.60;99.90;;;;;;5081360;28;20963;-80
2021/06/08 04:00:09;;;;;;;28.60;24.93;;;15.60;99.90;;;;;;5074998;28;20499;-80
2021/06/08 04:02:39;;;;;;;31.63;28.20;;;15.50;99.90;;;;;;5095100;28;20957;-80
2021/06/08 04:05:09;;;;;;;29.27;25.60;;;15.50;99.90;;;;;;5078656;28;20474;-80
2021/06/08 04:07:44;;;;;;;28.63;25.53;;;15.50;99.90;;;;;;5077076;28;20458;-79
2021/06/08 04:10:19;;;;;;;26.60;23.73;;;15.50;99.90;;;;;;5072497;28;20470;-79
2021/06/08 04:12:47;;;;;;;33.07;26.93;;;15.50;99.90;;;;;;5083710;28;20472;-80
2021/06/08 04:15:17;;;;;;;28.43;25.43;;;15.40;99.90;;;;;;5082087;28;20470;-80
2021/06/08 04:17:49;;;;;;;29.80;26.50;;;15.40;99.90;;;;;;5083386;28;20461;-80
2021/06/08 04:20:17;;;;;;;29.10;26.00;;;15.40;99.90;;;;;;5089561;28;21006;-80
2021/06/08 04:22:46;;;;;;;28.57;24.10;;;15.40;99.90;;;;;;5093265;28;20832;-80
2021/06/08 04:25:17;;;;;;;29.00;24.17;;;15.40;99.90;;;;;;5093386;28;20449;-80
2021/06/08 04:27:44;;;;;;;30.27;27.10;;;15.40;99.90;;;;;;5080756;28;20461;-80
2021/06/08 04:30:14;;;;;;;30.70;25.87;;;15.30;99.90;;;;;;5083844;28;20542;-79
2021/06/08 04:32:43;;;;;;;27.53;24.57;;;15.30;99.90;;;;;;5083699;28;20433;-80
2021/06/08 04:35:10;;;;;;;28.70;25.60;;;15.40;99.90;;;;;;5058313;28;20461;-80
2021/06/08 04:37:37;;;;;;;32.10;28.27;;;15.40;99.90;;;;;;5074766;28;20525;-80
2021/06/08 04:40:09;;;;;;;31.07;27.60;;;15.40;99.90;;;;;;5080238;28;20453;-80
2021/06/08 04:42:37;;;;;;;32.63;25.93;;;15.40;99.90;;;;;;5092783;28;20425;-80
2021/06/08 04:45:08;;;;;;;35.03;29.70;;;15.40;99.90;;;;;;5082577;28;20532;-80
2021/06/08 04:47:35;;;;;;;34.93;29.30;;;15.50;99.90;;;;;;5078369;28;20863;-80
2021/06/08 04:50:03;;;;;;;31.40;28.00;;;15.60;99.90;;;;;;5076630;28;20481;-79
2021/06/08 04:52:29;;;;;;;34.13;26.87;;;15.50;99.90;;;;;;5078276;28;20461;-80
2021/06/08 04:54:56;;;;;;;35.13;28.60;;;15.60;99.90;;;;;;5074533;28;21065;-80
2021/06/08 04:57:23;;;;;;;35.53;31.70;;;15.70;99.90;;;;;;5093648;28;20441;-80
2021/06/08 05:00:10;;;;;;;34.53;30.57;;;15.70;99.90;;;;;;5078014;28;20461;-80
2021/06/08 05:02:55;;;;;;;34.50;29.17;;;15.80;99.90;;;;;;5077772;28;20442;-79
2021/06/08 05:05:30;;;;;;;37.13;31.77;;;15.90;99.90;;;;;;5070441;28;20499;-79
2021/06/08 05:08:17;;;;;;;39.20;32.50;;;16.00;99.90;;;;;;5091431;28;20847;-80
2021/06/08 05:10:54;;;;;;;35.83;31.07;;;16.10;99.90;;;;;;5093433;28;20530;-80
2021/06/08 05:13:24;;;;;;;35.50;31.80;;;16.20;99.90;;;;;;5078526;28;20430;-80
2021/06/08 05:15:52;;;;;;;34.23;30.20;;;16.40;99.90;;;;;;5067464;28;20454;-80
2021/06/08 05:18:21;;;;;;;33.43;29.77;;;16.40;99.90;;;;;;5087689;28;20489;-80
2021/06/08 05:20:52;;;;;;;34.50;29.83;;;16.50;99.90;;;;;;5074378;28;20504;-80
2021/06/08 05:23:22;;;;;;;36.83;31.40;;;16.50;99.90;;;;;;5079700;28;20537;-80
2021/06/08 05:25:52;;;;;;;37.90;31.13;;;16.50;99.90;;;;;;5071976;28;20470;-80
2021/06/08 05:28:20;;;;;;;35.03;31.17;;;16.60;99.90;;;;;;5072987;28;21046;-79
2021/06/08 05:30:47;;;;;;;39.40;33.40;;;16.70;99.90;;;;;;5086288;28;20529;-80
2021/06/08 05:33:22;;;;;;;37.83;32.13;;;16.70;99.90;;;;;;5079430;28;20453;-80
2021/06/08 05:35:55;;;;;;;39.37;33.57;;;16.90;99.90;;;;;;5056331;28;20465;-80
2021/06/08 05:38:49;;;;;;;34.50;30.80;;;16.90;99.90;;;;;;5085235;28;20482;-80
2021/06/08 05:41:16;;;;;;;36.33;32.40;;;17.10;99.90;;;;;;5081642;28;20477;-80
2021/06/08 05:43:43;;;;;;;35.63;30.00;;;17.10;99.90;;;;;;5087002;28;20434;-80
2021/06/08 05:46:12;;;;;;;34.77;30.73;;;17.30;99.90;;;;;;5056437;28;20466;-79
2021/06/08 05:48:42;;;;;;;37.87;31.80;;;17.30;99.90;;;;;;5071838;28;20477;-80
2021/06/08 05:51:10;;;;;;;36.40;31.23;;;17.40;99.90;;;;;;5080333;28;20837;-80
2021/06/08 05:53:39;;;;;;;35.90;29.90;;;17.50;99.90;;;;;;5088596;28;20441;-79
2021/06/08 05:56:09;;;;;;;36.40;32.00;;;17.50;99.90;;;;;;5082903;28;20510;-80
2021/06/08 05:58:37;;;;;;;36.20;31.73;;;17.60;99.90;;;;;;5074309;28;20454;-79
2021/06/08 06:01:07;;;;;;;38.07;32.17;;;17.70;99.90;;;;;;5076273;28;20485;-80
2021/06/08 06:03:35;;;;;;;32.97;29.43;;;17.90;99.90;;;;;;5058838;28;20442;-80
2021/06/08 06:06:03;;;;;;;35.43;30.20;;;18.10;99.90;;;;;;5057107;28;20859;-80
2021/06/08 06:08:33;;;;;;;31.33;28.03;;;18.30;99.90;;;;;;5104294;28;20511;-80
2021/06/08 06:11:03;;;;;;;33.53;29.73;;;18.60;99.90;;;;;;5087790;28;20469;-80
2021/06/08 06:13:37;;;;;;;32.43;29.00;;;19.10;99.90;;;;;;5089514;28;20436;-79
2021/06/08 06:16:06;;;;;;;31.83;28.63;;;19.40;99.90;;;;;;5084837;28;20505;-79
2021/06/08 06:18:33;;;;;;;36.97;28.50;;;19.60;99.90;;;;;;5078354;28;20958;-80
2021/06/08 06:21:00;;;;;;;33.63;28.20;;;19.70;99.90;;;;;;5076941;28;20457;-79
2021/06/08 06:23:27;;;;;;;28.90;25.80;;;19.80;99.90;;;;;;5091971;28;20426;-80
2021/06/08 06:25:57;;;;;;;30.77;27.50;;;19.80;99.90;;;;;;5088772;28;20461;-80
2021/06/08 06:28:24;;;;;;;31.80;28.40;;;19.70;99.90;;;;;;5081347;28;20539;-80
2021/06/08 06:30:52;;;;;;;32.67;29.17;;;19.60;99.90;;;;;;5085781;28;20465;-80
2021/06/08 06:33:21;;;;;;;32.87;29.07;;;19.40;99.90;;;;;;5089550;28;20976;-79
2021/06/08 06:35:48;;;;;;;33.80;29.23;;;19.30;99.90;;;;;;5082104;28;20565;-79
2021/06/08 06:38:17;;;;;;;33.20;28.43;;;19.20;99.90;;;;;;5088845;28;20545;-80
2021/06/08 06:40:45;;;;;;;33.77;29.23;;;19.00;99.90;;;;;;5078904;28;20469;-79
2021/06/08 06:43:20;;;;;;;34.40;29.30;;;19.00;99.90;;;;;;5057483;28;20423;-80
2021/06/08 06:46:01;;;;;;;33.37;29.80;;;18.90;99.90;;;;;;5082030;28;20472;-79
2021/06/08 06:48:28;;;;;;;34.70;29.60;;;18.80;99.90;;;;;;5073876;28;20449;-80
2021/06/08 06:50:57;;;;;;;32.10;28.63;;;18.80;99.90;;;;;;5090225;28;20816;-80
2021/06/08 06:53:24;;;;;;;31.67;28.23;;;18.70;99.90;;;;;;5085636;28;20469;-80
2021/06/08 06:55:53;;;;;;;32.73;29.00;;;18.70;99.90;;;;;;5081172;28;20501;-80
2021/06/08 06:58:21;;;;;;;34.20;29.80;;;18.60;99.90;;;;;;5072721;28;20446;-80
2021/06/08 07:00:49;;;;;;;34.10;28.60;;;18.60;99.90;;;;;;5073341;28;20549;-80
2021/06/08 07:03:23;;;;;;;39.60;30.77;;;18.60;99.90;;;;;;5090065;28;20468;-79
2021/06/08 07:05:51;;;;;;;32.33;28.97;;;18.60;99.90;;;;;;5077610;28;20500;-80
2021/06/08 07:08:24;;;;;;;36.10;28.63;;;18.60;99.90;;;;;;5076716;28;20464;-79
2021/06/08 07:10:52;;;;;;;32.50;27.70;;;18.60;99.90;;;;;;5087991;28;20465;-80
2021/06/08 07:13:23;;;;;;;30.63;27.20;;;18.60;99.90;;;;;;5087003;28;20557;-80
2021/06/08 07:15:51;;;;;;;34.97;29.83;;;18.70;99.90;;;;;;5086293;28;20465;-79
2021/06/08 07:18:19;;;;;;;30.93;27.47;;;18.70;99.90;;;;;;5089235;28;20456;-80
2021/06/08 07:20:46;;;;;;;31.67;28.43;;;18.80;99.90;;;;;;5076306;28;20461;-81
2021/06/08 07:23:17;;;;;;;34.37;29.70;;;18.90;99.90;;;;;;5071982;28;20434;-81
2021/06/08 07:25:44;;;;;;;31.63;26.50;;;18.90;99.90;;;;;;5086679;28;20564;-80
2021/06/08 07:28:14;;;;;;;32.53;28.73;;;19.00;99.90;;;;;;5071134;28;20465;-80
2021/06/08 07:30:42;;;;;;;32.97;27.93;;;19.10;99.90;;;;;;5068976;28;20578;-80
2021/06/08 07:33:27;;;;;;;39.23;30.53;;;19.10;99.90;;;;;;5078620;28;20454;-80
2021/06/08 07:36:03;;;;;;;29.77;26.73;;;19.20;99.90;;;;;;5085895;28;20463;-80
2021/06/08 07:38:45;;;;;;;30.40;27.30;;;19.50;99.90;;;;;;5081541;28;20801;-81
2021/06/08 07:41:17;;;;;;;31.90;27.97;;;19.70;99.90;;;;;;5079454;28;20471;-80
2021/06/08 07:43:52;;;;;;;34.87;31.23;;;20.00;99.90;;;;;;5073542;28;20438;-80
2021/06/08 07:46:20;;;;;;;33.77;30.43;;;20.20;99.90;;;;;;5090426;28;20487;-80
2021/06/08 07:48:51;;;;;;;32.57;28.97;;;20.60;99.90;;;;;;5081779;28;20450;-80
2021/06/08 07:51:19;;;;;;;33.87;30.57;;;20.90;99.90;;;;;;5079703;28;20825;-80
2021/06/08 07:53:49;;;;;;;34.47;30.43;;;20.90;99.90;;;;;;5073973;28;21182;-80
2021/06/08 07:56:16;;;;;;;35.30;31.80;;;20.90;99.90;;;;;;5078609;28;20473;-79
2021/06/08 07:58:44;;;;;;;36.20;32.07;;;21.00;99.90;;;;;;5077643;28;20451;-80
2021/06/08 08:01:13;;;;;;;34.90;31.40;;;21.30;99.90;;;;;;5074223;28;20471;-80
2021/06/08 08:03:41;;;;;;;32.27;28.93;;;21.50;99.90;;;;;;5075556;28;20515;-79
2021/06/08 08:06:10;;;;;;;34.73;31.30;;;21.60;99.90;;;;;;5079171;28;20464;-80
2021/06/08 08:08:43;;;;;;;34.67;30.97;;;21.60;99.90;;;;;;5106372;28;20821;-80
2021/06/08 08:11:14;;;;;;;35.63;31.70;;;21.60;99.90;;;;;;5073862;28;21012;-80
2021/06/08 08:13:49;;;;;;;34.67;31.27;;;21.80;99.90;;;;;;5086172;28;20443;-80
2021/06/08 08:16:17;;;;;;;33.50;30.10;;;21.70;99.90;;;;;;5074434;28;20482;-80
2021/06/08 08:18:45;;;;;;;32.13;29.03;;;21.70;99.90;;;;;;5090616;28;21031;-79
2021/06/08 08:21:16;;;;;;;32.47;29.27;;;21.60;99.90;;;;;;5079099;28;20461;-79
2021/06/08 08:23:44;;;;;;;34.07;30.53;;;21.60;99.90;;;;;;5085278;28;20443;-80
2021/06/08 08:26:12;;;;;;;33.17;29.67;;;21.50;99.90;;;;;;5092361;28;20464;-80
2021/06/08 08:28:42;;;;;;;32.97;29.53;;;21.40;99.90;;;;;;5087657;28;20495;-80
2021/06/08 08:31:15;;;;;;;34.70;31.37;;;21.40;99.90;;;;;;5074578;28;20569;-80
2021/06/08 08:33:43;;;;;;;33.33;29.80;;;21.30;99.90;;;;;;5076105;28;20518;-81
2021/06/08 08:36:10;;;;;;;36.07;32.40;;;21.30;99.90;;;;;;5076398;28;20462;-80
2021/06/08 08:38:38;;;;;;;35.93;32.07;;;21.50;99.90;;;;;;5081040;28;20456;-80
2021/06/08 08:41:06;;;;;;;34.33;30.80;;;21.50;99.90;;;;;;5084048;28;20797;-79
2021/06/08 08:43:47;;;;;;;33.57;30.37;;;21.50;99.90;;;;;;5074745;28;20918;-81
2021/06/08 08:46:15;;;;;;;31.13;27.83;;;21.30;99.90;;;;;;5084921;28;20470;-80
2021/06/08 08:48:44;;;;;;;32.03;29.03;;;21.10;99.90;;;;;;5084235;28;20477;-79
2021/06/08 08:51:15;;;;;;;32.10;28.60;;;21.00;99.90;;;;;;5057228;28;20468;-79
2021/06/08 08:53:44;;;;;;;33.00;29.80;;;20.90;99.90;;;;;;5087069;28;20461;-79
2021/06/08 08:56:36;;;;;;;31.90;28.80;;;20.90;99.90;;;;;;5076293;28;21045;-79
2021/06/08 08:59:05;;;;;;;33.03;28.47;;;20.90;99.90;;;;;;5084980;28;20489;-80
2021/06/08 09:01:34;;;;;;;34.37;29.70;;;20.80;99.90;;;;;;5092618;28;20773;-80
2021/06/08 09:04:03;;;;;;;32.83;29.63;;;20.80;99.90;;;;;;5093343;28;20429;-79
2021/06/08 09:06:31;;;;;;;32.57;29.40;;;20.60;99.90;;;;;;5078022;28;20509;-80
2021/06/08 09:09:07;;;;;;;26.87;24.30;;;20.60;99.90;;;;;;5076432;28;20933;-80
2021/06/08 09:11:41;;;;;;;26.80;24.20;;;20.80;99.90;;;;;;5075280;28;20455;-79
2021/06/08 09:14:09;;;;;;;28.37;22.77;;;21.10;99.90;;;;;;5075971;28;20433;-80
2021/06/08 09:16:39;;;;;;;28.47;25.77;;;21.40;99.90;;;;;;5083676;28;20435;-80
2021/06/08 09:19:15;;;;;;;25.93;23.63;;;21.60;99.90;;;;;;5079676;28;20970;-80
2021/06/08 09:21:54;;;;;;;26.23;23.70;;;21.80;99.90;;;;;;5082473;28;20455;-80
2021/06/08 09:24:23;;;;;;;23.27;20.83;;;21.80;99.90;;;;;;5071392;28;20430;-80
2021/06/08 09:26:50;;;;;;;23.87;20.90;;;21.70;99.90;;;;;;5073316;28;20795;-81
2021/06/08 09:29:38;;;;;;;20.73;18.73;;;21.60;99.90;;;;;;5067121;28;20479;-79
2021/06/08 09:32:28;;;;;;;22.13;19.93;;;21.60;99.90;;;;;;5076738;28;21038;-80
2021/06/08 09:35:00;;;;;;;18.63;16.73;;;21.80;99.90;;;;;;5072828;28;20488;-79
2021/06/08 09:37:37;;;;;;;17.10;15.40;;;22.00;99.90;;;;;;5080221;28;20572;-80
2021/06/08 09:40:25;;;;;;;17.27;15.77;;;22.20;99.90;;;;;;5081277;28;20530;-80
2021/06/08 09:43:10;;;;;;;13.03;11.73;;;22.30;99.90;;;;;;5080388;28;20432;-80
2021/06/08 09:45:51;;;;;;;11.50;10.20;;;22.30;99.90;;;;;;5078218;28;20477;-80
2021/06/08 09:48:19;;;;;;;10.57;9.63;;;22.30;99.90;;;;;;5072350;28;20528;-80
2021/06/08 09:50:51;;;;;;;9.20;8.40;;;22.20;99.90;;;;;;5061988;28;20469;-80
2021/06/08 09:53:24;;;;;;;9.77;8.87;;;22.10;99.90;;;;;;5072965;28;20465;-80
2021/06/08 09:56:06;;;;;;;11.13;10.03;;;21.90;99.90;;;;;;5088855;28;20502;-80
2021/06/08 09:58:44;;;;;;;11.57;10.63;;;21.90;99.90;;;;;;5094040;28;20456;-80
2021/06/08 10:01:20;;;;;;;11.70;10.60;;;21.90;99.90;;;;;;5082134;28;20467;-80
2021/06/08 10:03:54;;;;;;;11.70;10.50;;;21.90;99.90;;;;;;5079205;28;20439;-80
2021/06/08 10:06:21;;;;;;;14.17;12.77;;;21.90;99.90;;;;;;5078384;28;20469;-79
2021/06/08 10:08:53;;;;;;;13.43;12.03;;;21.70;99.90;;;;;;5090670;28;20444;-80
2021/06/08 10:11:25;;;;;;;13.63;12.23;;;21.70;99.90;;;;;;5077658;28;20502;-80
2021/06/08 10:13:58;;;;;;;13.10;11.97;;;21.70;99.90;;;;;;5056666;28;20860;-80
2021/06/08 10:16:31;;;;;;;15.27;13.77;;;21.60;99.90;;;;;;5072631;28;20785;-80
2021/06/08 10:19:03;;;;;;;14.63;13.13;;;21.50;99.90;;;;;;5077089;28;20460;-80
2021/06/08 10:21:52;;;;;;;13.37;11.50;;;21.50;99.90;;;;;;5064433;28;20822;-80
2021/06/08 10:24:24;;;;;;;15.73;11.50;;;21.50;99.90;;;;;;5072529;28;20472;-80
2021/06/08 10:26:53;;;;;;;13.43;12.07;;;21.50;99.90;;;;;;5081314;28;20770;-80
2021/06/08 10:29:30;;;;;;;14.80;13.30;;;21.60;99.90;;;;;;5083631;28;20485;-80
2021/06/08 10:31:58;;;;;;;15.50;13.13;;;21.70;99.90;;;;;;5073622;28;20543;-81
2021/06/08 10:34:41;;;;;;;17.70;13.17;;;21.80;99.90;;;;;;5090101;28;20479;-81
2021/06/08 10:37:09;;;;;;;15.70;14.00;;;21.80;99.90;;;;;;5089511;28;20448;-80
2021/06/08 10:39:37;;;;;;;13.73;12.10;;;22.00;99.90;;;;;;5091031;28;20516;-80
2021/06/08 10:42:05;;;;;;;12.70;11.50;;;22.20;99.90;;;;;;5070581;28;20428;-80
2021/06/08 10:44:34;;;;;;;13.57;12.37;;;22.30;99.90;;;;;;5076254;28;20492;-80
2021/06/08 10:47:19;;;;;;;16.30;14.47;;;22.50;97.80;;;;;;5071476;28;20435;-81
2021/06/08 10:49:46;;;;;;;15.30;13.67;;;22.60;95.60;;;;;;5081671;28;20463;-80
2021/06/08 10:52:16;;;;;;;13.83;12.13;;;22.70;96.00;;;;;;5089453;28;21048;-80
2021/06/08 10:54:46;;;;;;;16.33;14.77;;;22.70;96.90;;;;;;5072269;28;20467;-80
2021/06/08 10:57:15;;;;;;;15.60;13.97;;;22.90;93.50;;;;;;5085308;28;20460;-81
2021/06/08 10:59:47;;;;;;;15.70;14.10;;;22.90;94.30;;;;;;5072305;28;20456;-80
2021/06/08 11:02:46;;;;;;;17.00;15.50;;;22.90;95.00;;;;;;5070657;28;20501;-80
2021/06/08 11:05:19;;;;;;;21.03;16.63;;;23.00;94.50;;;;;;5070682;28;20467;-80
2021/06/08 11:07:49;;;;;;;19.97;18.10;;;23.10;93.00;;;;;;5054148;28;20987;-81
2021/06/08 11:10:25;;;;;;;19.20;17.70;;;23.00;94.10;;;;;;5083524;28;20479;-80
2021/06/08 11:13:08;;;;;;;19.33;16.33;;;23.00;93.00;;;;;;5073384;28;20540;-80
2021/06/08 11:15:45;;;;;;;17.10;15.47;;;23.00;93.10;;;;;;5071053;28;20474;-80
2021/06/08 11:18:23;;;;;;;17.17;15.87;;;23.00;92.70;;;;;;5074677;28;20452;-80
2021/06/08 11:21:11;;;;;;;16.60;14.83;;;23.10;91.90;;;;;;5089423;28;20464;-80
2021/06/08 11:23:43;;;;;;;14.33;12.97;;;22.90;92.30;;;;;;5090446;28;20443;-80
2021/06/08 11:26:15;;;;;;;15.17;12.60;;;23.00;92.30;;;;;;5064228;28;20555;-80
2021/06/08 11:28:49;;;;;;;15.57;14.10;;;23.00;93.80;;;;;;5073242;28;20463;-79
2021/06/08 11:31:19;;;;;;;13.90;12.47;;;22.90;94.00;;;;;;5088796;28;20481;-79
2021/06/08 11:33:51;;;;;;;16.93;14.23;;;22.80;92.70;;;;;;5066511;28;20493;-81
2021/06/08 11:36:18;;;;;;;14.93;13.50;;;22.70;93.30;;;;;;5083548;28;20529;-81
2021/06/08 11:38:46;;;;;;;16.83;15.33;;;22.60;93.90;;;;;;5090647;28;20457;-80
2021/06/08 11:41:15;;;;;;;18.93;14.53;;;22.50;94.50;;;;;;5074788;28;20474;-80
2021/06/08 11:43:59;;;;;;;15.30;13.80;;;22.60;93.20;;;;;;5083356;28;20440;-81
2021/06/08 11:46:28;;;;;;;17.37;15.73;;;22.80;91.80;;;;;;5082067;28;20465;-80
2021/06/08 11:49:17;;;;;;;17.10;15.70;;;22.90;90.40;;;;;;5086323;28;20824;-79
2021/06/08 11:51:48;;;;;;;16.20;14.70;;;22.90;91.20;;;;;;5077991;28;21013;-80
2021/06/08 11:54:19;;;;;;;16.60;15.17;;;22.90;90.30;;;;;;5073917;28;20550;-80
2021/06/08 11:57:02;;;;;;;18.40;16.70;;;22.80;90.00;;;;;;5075878;28;20513;-81
2021/06/08 11:59:32;;;;;;;18.37;16.73;;;23.00;91.10;;;;;;5083225;28;20498;-81
2021/06/08 12:02:05;;;;;;;16.57;15.10;;;22.80;92.40;;;;;;5078163;28;20453;-81
2021/06/08 12:05:08;;;;;;;17.73;16.33;;;22.70;90.70;;;;;;5095214;28;20446;-80
2021/06/08 12:07:49;;;;;;;17.00;15.70;;;22.60;90.50;;;;;;5076413;28;20492;-78
2021/06/08 12:10:39;;;;;;;20.43;18.70;;;22.60;92.40;;;;;;5074440;28;20642;-80
2021/06/08 12:13:11;;;;;;;22.43;20.30;;;22.60;92.10;;;;;;5074751;28;20891;-81
2021/06/08 12:15:41;;;;;;;22.60;20.60;;;22.50;89.90;;;;;;5060291;28;20524;-80
2021/06/08 12:18:18;;;;;;;21.53;19.73;;;22.40;91.10;;;;;;5093763;28;20889;-79
2021/06/08 12:21:11;;;;;;;19.50;17.67;;;22.40;91.90;;;;;;5086664;28;20546;-80
2021/06/08 12:23:41;;;;;;;18.03;16.53;;;22.50;91.90;;;;;;5108860;28;20438;-80
2021/06/08 12:26:16;;;;;;;19.97;18.27;;;22.60;91.00;;;;;;5095362;28;20470;-80
2021/06/08 12:29:04;;;;;;;23.93;21.87;;;22.70;90.20;;;;;;5075315;28;20472;-79
2021/06/08 12:31:32;;;;;;;23.73;21.50;;;22.50;90.80;;;;;;5080847;28;20945;-80
2021/06/08 12:33:59;;;;;;;20.77;18.80;;;22.40;91.40;;;;;;5076416;28;20464;-80
2021/06/08 12:36:27;;;;;;;23.57;21.23;;;22.50;93.60;;;;;;5080158;28;20505;-80
2021/06/08 12:38:56;;;;;;;19.70;18.00;;;22.60;91.00;;;;;;5080829;28;20524;-80
2021/06/08 12:41:28;;;;;;;21.13;19.33;;;22.60;91.40;;;;;;5092203;28;20529;-80
2021/06/08 12:43:57;;;;;;;20.37;18.50;;;22.70;90.60;;;;;;5100328;28;20982;-79
2021/06/08 12:46:30;;;;;;;18.80;16.93;;;22.90;89.10;;;;;;5072184;28;20466;-80
2021/06/08 12:49:04;;;;;;;19.93;18.33;;;23.00;89.20;;;;;;5076314;28;20486;-80
2021/06/08 12:51:33;;;;;;;22.30;20.20;;;23.00;87.40;;;;;;5077857;28;21022;-80